createdAt,value
2018-03-01T00:01:40.827Z,37.67
2018-03-01T00:04:08.433Z,39.28
2018-03-01T00:06:36.050Z,43.80
2018-03-01T00:09:04.606Z,38.70
2018-03-01T00:11:32.229Z,37.03
2018-03-01T00:14:00.670Z,35.67
2018-03-01T00:16:28.279Z,42.20
2018-03-01T00:18:55.904Z,36.95
2018-03-01T00:21:23.540Z,35.03
2018-03-01T00:23:51.919Z,36.83
2018-03-01T00:26:19.560Z,35.47
2018-03-01T00:28:47.182Z,37.22
2018-03-01T00:31:15.555Z,35.08
2018-03-01T00:33:43.201Z,34.88
2018-03-01T00:36:10.821Z,33.22
2018-03-01T00:38:39.237Z,42.42
2018-03-01T00:41:06.836Z,37.13
2018-03-01T00:43:34.439Z,38.03
2018-03-01T00:46:02.076Z,39.40
2018-03-01T00:48:29.695Z,37.63
2018-03-01T00:50:58.098Z,40.08
2018-03-01T00:53:26.464Z,34.83
2018-03-01T00:55:54.111Z,42.55
2018-03-01T00:58:21.740Z,40.75
2018-03-01T01:00:50.115Z,42.65
2018-03-01T01:03:17.744Z,37.55
2018-03-01T01:05:45.355Z,41.67
2018-03-01T01:08:12.961Z,38.53
2018-03-01T01:10:40.675Z,35.60
2018-03-01T01:13:08.277Z,38.95
2018-03-01T01:15:35.911Z,38.85
2018-03-01T01:18:03.526Z,43.45
2018-03-01T01:20:31.142Z,42.62
2018-03-01T01:22:58.766Z,42.65
2018-03-01T01:25:26.365Z,45.67
2018-03-01T01:27:55.017Z,35.78
2018-03-01T01:30:22.628Z,39.25
2018-03-01T01:32:51.050Z,32.60
2018-03-01T01:35:18.680Z,42.55
2018-03-01T01:37:46.276Z,38.15
2018-03-01T01:40:14.671Z,39.47
2018-03-01T01:42:43.050Z,39.08
2018-03-01T01:45:10.660Z,38.85
2018-03-01T01:47:38.293Z,37.08
2018-03-01T01:50:05.936Z,48.83
2018-03-01T01:52:33.578Z,36.45
2018-03-01T01:55:01.185Z,35.05
2018-03-01T01:57:28.807Z,38.78
2018-03-01T01:59:57.218Z,37.13
2018-03-01T02:02:24.831Z,40.20
2018-03-01T02:04:52.481Z,44.08
2018-03-01T02:07:20.090Z,38.00
2018-03-01T02:09:47.728Z,36.95
2018-03-01T02:12:16.151Z,49.70
2018-03-01T02:14:43.781Z,31.52
2018-03-01T02:17:11.395Z,34.83
2018-03-01T02:19:39.162Z,40.85
2018-03-01T02:22:06.854Z,38.33
2018-03-01T02:24:34.476Z,41.40
2018-03-01T02:27:02.115Z,42.65
2018-03-01T02:29:29.735Z,46.50
2018-03-01T02:31:57.460Z,37.65
2018-03-01T02:34:25.071Z,38.72
2018-03-01T02:36:52.787Z,42.58
2018-03-01T02:39:20.427Z,41.37
2018-03-01T02:41:48.042Z,39.17
2018-03-01T02:44:15.688Z,41.22
2018-03-01T02:46:43.310Z,34.50
2018-03-01T02:49:10.929Z,41.83
2018-03-01T02:51:38.572Z,34.92
2018-03-01T02:54:06.947Z,35.33
2018-03-01T02:56:34.596Z,36.03
2018-03-01T02:59:03.210Z,38.72
2018-03-01T03:01:30.818Z,35.47
2018-03-01T03:03:59.972Z,41.17
2018-03-01T03:06:27.656Z,40.03
2018-03-01T03:08:55.301Z,37.47
2018-03-01T03:11:22.908Z,36.00
2018-03-01T03:13:50.881Z,42.55
2018-03-01T03:16:18.514Z,39.88
2018-03-01T03:18:47.338Z,44.05
2018-03-01T03:21:14.992Z,43.47
2018-03-01T03:23:42.595Z,38.78
2018-03-01T03:26:10.689Z,45.33
2018-03-01T03:28:39.147Z,46.78
2018-03-01T03:31:06.742Z,42.78
2018-03-01T03:33:34.390Z,38.15
2018-03-01T03:36:01.990Z,39.35
2018-03-01T03:38:29.590Z,38.40
2018-03-01T03:40:57.229Z,41.03
2018-03-01T03:43:24.834Z,41.78
2018-03-01T03:45:52.482Z,45.63
2018-03-01T03:48:20.176Z,43.60
2018-03-01T03:50:47.786Z,46.65
2018-03-01T03:53:16.187Z,47.15
2018-03-01T03:55:44.574Z,39.88
2018-03-01T03:58:12.942Z,42.08
2018-03-01T04:00:40.564Z,45.22
2018-03-01T04:03:08.167Z,40.92
2018-03-01T04:05:35.788Z,44.00
2018-03-01T04:08:04.162Z,43.53
2018-03-01T04:10:31.793Z,46.37
2018-03-01T04:13:00.314Z,42.72
2018-03-01T04:15:27.928Z,42.55
2018-03-01T04:17:55.655Z,42.53
2018-03-01T04:20:23.271Z,46.00
2018-03-01T04:22:51.729Z,50.20
2018-03-01T04:25:19.327Z,43.25
2018-03-01T04:27:47.070Z,44.17
2018-03-01T04:30:14.730Z,44.33
2018-03-01T04:32:42.419Z,44.53
2018-03-01T04:35:10.026Z,47.55
2018-03-01T04:37:37.770Z,41.33
2018-03-01T04:40:05.365Z,45.20
2018-03-01T04:42:33.006Z,44.97
2018-03-01T04:45:00.637Z,48.08
2018-03-01T04:47:29.084Z,54.30
2018-03-01T04:49:56.727Z,49.33
2018-03-01T04:52:24.360Z,51.25
2018-03-01T04:54:52.001Z,55.30
2018-03-01T04:57:19.606Z,45.97
2018-03-01T04:59:47.235Z,51.28
2018-03-01T05:02:14.867Z,45.85
2018-03-01T05:04:42.488Z,48.55
2018-03-01T05:07:10.162Z,42.58
2018-03-01T05:09:37.807Z,46.28
2018-03-01T05:12:06.169Z,43.85
2018-03-01T05:14:33.769Z,46.72
2018-03-01T05:17:02.184Z,52.50
2018-03-01T05:19:29.800Z,50.70
2018-03-01T05:21:57.430Z,46.42
2018-03-01T05:24:25.040Z,50.88
2018-03-01T05:26:52.662Z,46.05
2018-03-01T05:29:20.276Z,40.63
2018-03-01T05:31:47.906Z,46.28
2018-03-01T05:34:17.151Z,53.20
2018-03-01T05:36:45.660Z,44.58
2018-03-01T05:39:13.266Z,47.90
2018-03-01T05:41:41.005Z,51.97
2018-03-01T05:44:08.680Z,54.58
2018-03-01T05:46:36.294Z,58.25
2018-03-01T05:49:04.751Z,52.92
2018-03-01T05:51:32.397Z,56.00
2018-03-01T05:54:00.038Z,62.05
2018-03-01T05:56:28.418Z,53.50
2018-03-01T05:58:56.083Z,51.05
2018-03-01T06:01:23.700Z,50.20
2018-03-01T06:03:51.419Z,50.80
2018-03-01T06:06:19.081Z,48.60
2018-03-01T06:08:46.700Z,54.33
2018-03-01T06:11:14.433Z,42.33
2018-03-01T06:13:42.051Z,54.70
2018-03-01T06:16:09.690Z,50.05
2018-03-01T06:18:37.320Z,52.40
2018-03-01T06:21:04.959Z,55.00
2018-03-01T06:23:32.580Z,55.75
2018-03-01T06:26:00.513Z,54.03
2018-03-01T06:28:28.934Z,56.80
2018-03-01T06:30:57.354Z,66.45
2018-03-01T06:33:25.004Z,49.20
2018-03-01T06:35:52.731Z,56.45
2018-03-01T06:38:20.339Z,46.92
2018-03-01T06:40:48.718Z,51.25
2018-03-01T06:43:16.353Z,53.28
2018-03-01T06:45:43.982Z,54.63
2018-03-01T06:48:12.376Z,51.03
2018-03-01T06:50:40.746Z,57.80
2018-03-01T06:53:08.438Z,53.05
2018-03-01T06:55:36.821Z,49.17
2018-03-01T06:58:04.450Z,55.70
2018-03-01T07:00:32.065Z,51.92
2018-03-01T07:02:59.705Z,48.45
2018-03-01T07:05:27.315Z,48.85
2018-03-01T07:07:54.932Z,57.20
2018-03-01T07:10:22.554Z,54.58
2018-03-01T07:12:50.178Z,53.65
2018-03-01T07:15:17.814Z,48.70
2018-03-01T07:17:45.425Z,45.40
2018-03-01T07:20:13.056Z,55.95
2018-03-01T07:22:40.678Z,55.38
2018-03-01T07:25:08.318Z,57.05
2018-03-01T07:27:36.685Z,56.75
2018-03-01T07:30:04.339Z,51.28
2018-03-01T07:32:31.972Z,59.55
2018-03-01T07:34:59.584Z,47.10
2018-03-01T07:37:27.215Z,53.50
2018-03-01T07:39:55.590Z,47.90
2018-03-01T07:42:23.215Z,53.75
2018-03-01T07:44:50.820Z,52.28
2018-03-01T07:47:18.841Z,56.00
2018-03-01T07:49:46.453Z,52.90
2018-03-01T07:52:14.086Z,53.90
2018-03-01T07:54:42.455Z,50.65
2018-03-01T07:57:10.082Z,49.47
2018-03-01T07:59:37.678Z,47.58
2018-03-01T08:02:05.320Z,54.85
2018-03-01T08:04:32.950Z,45.00
2018-03-01T08:07:00.554Z,56.22
2018-03-01T08:09:28.211Z,55.03
2018-03-01T08:11:56.583Z,51.92
2018-03-01T08:14:24.217Z,49.80
2018-03-01T08:16:51.811Z,42.30
2018-03-01T08:19:19.420Z,50.97
2018-03-01T08:21:47.020Z,41.42
2018-03-01T08:24:14.642Z,50.53
2018-03-01T08:26:42.263Z,47.40
2018-03-01T08:29:09.896Z,43.95
2018-03-01T08:31:37.490Z,43.53
2018-03-01T08:34:05.868Z,44.05
2018-03-01T08:36:33.500Z,42.10
2018-03-01T08:39:01.102Z,47.03
2018-03-01T08:41:28.721Z,42.33
2018-03-01T08:43:56.322Z,46.97
2018-03-01T08:46:23.944Z,41.25
2018-03-01T08:48:52.330Z,36.22
2018-03-01T08:51:19.962Z,39.53
2018-03-01T08:53:47.567Z,40.72
2018-03-01T08:56:15.202Z,43.33
2018-03-01T08:58:42.890Z,35.20
2018-03-01T09:01:10.503Z,33.83
2018-03-01T09:03:38.158Z,37.45
2018-03-01T09:06:05.756Z,37.47
2018-03-01T09:08:34.151Z,44.53
2018-03-01T09:11:02.519Z,42.53
2018-03-01T09:13:30.159Z,40.05
2018-03-01T09:15:57.765Z,36.25
2018-03-01T09:18:25.391Z,40.92
2018-03-01T09:20:53.004Z,46.58
2018-03-01T09:23:20.636Z,39.15
2018-03-01T09:25:48.246Z,45.92
2018-03-01T09:28:15.886Z,42.08
2018-03-01T09:30:43.494Z,42.67
2018-03-01T09:33:11.102Z,38.13
2018-03-01T09:35:39.491Z,41.63
2018-03-01T09:38:07.872Z,41.95
2018-03-01T09:40:35.499Z,45.22
2018-03-01T09:43:03.094Z,39.00
2018-03-01T09:45:30.723Z,37.85
2018-03-01T09:47:58.328Z,38.20
2018-03-01T09:50:25.961Z,39.42
2018-03-01T09:52:54.338Z,36.63
2018-03-01T09:55:21.997Z,37.08
2018-03-01T09:57:49.591Z,38.80
2018-03-01T10:00:17.964Z,44.63
2018-03-01T10:02:45.614Z,40.33
2018-03-01T10:05:13.219Z,35.63
2018-03-01T10:07:40.842Z,38.55
2018-03-01T10:10:08.440Z,40.75
2018-03-01T10:12:36.112Z,40.47
2018-03-01T10:15:03.738Z,38.45
2018-03-01T10:17:32.128Z,38.70
2018-03-01T10:20:00.500Z,38.88
2018-03-01T10:22:28.116Z,43.72
2018-03-01T10:24:55.723Z,42.67
2018-03-01T10:27:26.155Z,36.55
2018-03-01T10:29:53.740Z,41.35
2018-03-01T10:32:21.340Z,37.45
2018-03-01T10:34:49.740Z,40.00
2018-03-01T10:37:18.105Z,38.53
2018-03-01T10:39:46.582Z,39.70
2018-03-01T10:42:14.179Z,38.83
2018-03-01T10:44:41.795Z,37.80
2018-03-01T10:47:09.387Z,38.00
2018-03-01T10:49:37.035Z,36.30
2018-03-01T10:52:05.394Z,39.00
2018-03-01T10:54:33.094Z,35.85
2018-03-01T10:57:01.446Z,39.50
2018-03-01T10:59:29.060Z,35.95
2018-03-01T11:02:00.979Z,33.88
2018-03-01T11:04:28.583Z,39.92
2018-03-01T11:06:56.194Z,37.92
2018-03-01T11:09:23.790Z,35.70
2018-03-01T11:11:51.429Z,43.03
2018-03-01T11:14:19.054Z,38.08
2018-03-01T11:16:46.671Z,32.55
2018-03-01T11:19:15.047Z,38.22
2018-03-01T11:21:43.444Z,31.75
2018-03-01T11:24:11.818Z,37.90
2018-03-01T11:26:39.429Z,38.28
2018-03-01T11:29:07.050Z,31.62
2018-03-01T11:31:34.647Z,36.33
2018-03-01T11:34:02.315Z,35.03
2018-03-01T11:36:29.880Z,35.53
2018-03-01T11:38:57.498Z,34.75
2018-03-01T11:41:25.100Z,36.15
2018-03-01T11:43:52.785Z,35.50
2018-03-01T11:46:20.383Z,34.20
2018-03-01T11:48:48.011Z,33.30
2018-03-01T11:51:15.707Z,34.72
2018-03-01T11:53:43.300Z,36.50
2018-03-01T11:56:10.929Z,36.33
2018-03-01T11:58:38.536Z,37.45
2018-03-01T12:01:06.153Z,33.15
2018-03-01T12:03:34.535Z,38.65
2018-03-01T12:06:02.928Z,37.33
2018-03-01T12:08:31.296Z,38.85
2018-03-01T12:10:58.913Z,36.40
2018-03-01T12:13:26.493Z,37.92
2018-03-01T12:15:54.123Z,37.25
2018-03-01T12:18:21.718Z,32.63
2018-03-01T12:20:50.128Z,32.40
2018-03-01T12:23:17.740Z,33.22
2018-03-01T12:25:45.338Z,34.00
2018-03-01T12:28:13.022Z,37.55
2018-03-01T12:30:40.602Z,35.47
2018-03-01T12:33:08.993Z,35.60
2018-03-01T12:35:37.354Z,35.00
2018-03-01T12:38:04.973Z,34.22
2018-03-01T12:40:32.576Z,31.90
2018-03-01T12:43:00.192Z,36.58
2018-03-01T12:45:27.786Z,36.08
2018-03-01T12:47:56.639Z,35.78
2018-03-01T12:50:24.252Z,33.90
2018-03-01T12:52:52.767Z,34.67
2018-03-01T12:55:20.479Z,33.83
2018-03-01T12:57:48.096Z,35.28
2018-03-01T13:00:16.546Z,34.55
2018-03-01T13:02:44.152Z,39.70
2018-03-01T13:05:11.775Z,34.20
2018-03-01T13:07:39.375Z,34.80
2018-03-01T13:10:07.006Z,34.80
2018-03-01T13:12:34.602Z,34.85
2018-03-01T13:15:02.253Z,30.08
2018-03-01T13:17:29.864Z,37.28
2018-03-01T13:19:57.499Z,34.85
2018-03-01T13:22:25.108Z,29.50
2018-03-01T13:24:52.784Z,34.55
2018-03-01T13:27:20.454Z,31.37
2018-03-01T13:29:48.059Z,34.28
2018-03-01T13:32:31.359Z,33.28
2018-03-01T13:35:04.634Z,29.80
2018-03-01T13:37:33.023Z,36.25
2018-03-01T13:40:00.625Z,41.83
2018-03-01T13:42:28.271Z,34.17
2018-03-01T13:44:56.652Z,39.05
2018-03-01T13:47:29.556Z,35.85
2018-03-01T13:49:57.930Z,35.13
2018-03-01T13:52:25.537Z,40.72
2018-03-01T13:54:53.182Z,32.05
2018-03-01T13:57:20.785Z,34.08
2018-03-01T13:59:48.403Z,33.88
2018-03-01T14:02:16.013Z,33.75
2018-03-01T14:04:44.463Z,33.42
2018-03-01T14:07:15.979Z,35.47
2018-03-01T14:09:44.376Z,30.25
2018-03-01T14:15:12.645Z,30.42
2018-03-01T14:17:46.806Z,35.25
2018-03-01T14:20:22.152Z,31.50
2018-03-01T14:22:55.443Z,33.30
2018-03-01T14:25:23.082Z,32.35
2018-03-01T14:27:52.492Z,29.70
2018-03-01T14:30:35.013Z,32.53
2018-03-01T14:33:02.607Z,37.80
2018-03-01T14:35:30.206Z,32.17
2018-03-01T14:37:57.881Z,35.40
2018-03-01T14:40:25.476Z,32.63
2018-03-01T14:42:53.094Z,39.40
2018-03-01T14:45:20.700Z,37.15
2018-03-01T14:47:48.326Z,40.95
2018-03-01T14:50:15.937Z,37.88
2018-03-01T14:52:43.559Z,37.40
2018-03-01T14:55:11.921Z,33.80
2018-03-01T14:57:39.521Z,35.80
2018-03-01T15:00:07.971Z,35.63
2018-03-01T15:02:35.579Z,39.47
2018-03-01T15:05:03.202Z,41.10
2018-03-01T15:07:30.815Z,43.97
2018-03-01T15:09:58.439Z,35.30
2018-03-01T15:12:26.043Z,37.33
2018-03-01T15:14:53.673Z,36.90
2018-03-01T15:17:21.273Z,37.92
2018-03-01T15:19:48.928Z,37.33
2018-03-01T15:22:16.523Z,36.05
2018-03-01T15:24:44.128Z,31.33
2018-03-01T15:27:11.752Z,42.90
2018-03-01T15:29:39.355Z,40.90
2018-03-01T15:32:06.992Z,40.12
2018-03-01T15:34:34.615Z,44.47
2018-03-01T15:37:02.241Z,35.63
2018-03-01T15:39:29.876Z,38.83
2018-03-01T15:41:57.498Z,36.13
2018-03-01T15:44:25.108Z,36.75
2018-03-01T15:46:52.774Z,37.42
2018-03-01T15:49:20.391Z,39.75
2018-03-01T15:51:48.755Z,37.15
2018-03-01T15:54:16.398Z,37.47
2018-03-01T15:56:44.012Z,38.17
2018-03-01T15:59:11.858Z,38.80
2018-03-01T16:01:39.538Z,36.83
2018-03-01T16:04:07.825Z,34.63
2018-03-01T16:06:38.077Z,35.58
2018-03-01T16:09:05.758Z,25.33
2018-03-01T16:11:33.496Z,36.55
2018-03-01T16:14:01.159Z,34.28
2018-03-01T16:16:28.793Z,33.00
2018-03-01T16:18:56.491Z,33.25
2018-03-01T16:21:24.891Z,31.35
2018-03-01T16:23:52.561Z,32.78
2018-03-01T16:26:20.202Z,42.03
2018-03-01T16:28:48.615Z,35.80
2018-03-01T16:31:17.279Z,31.00
2018-03-01T16:33:45.909Z,37.15
2018-03-01T16:36:14.295Z,31.02
2018-03-01T16:38:42.121Z,36.85
2018-03-01T16:41:09.823Z,32.20
2018-03-01T16:43:37.449Z,33.45
2018-03-01T16:46:05.166Z,36.08
2018-03-01T16:48:33.841Z,42.83
2018-03-01T16:51:01.826Z,37.90
2018-03-01T16:53:29.837Z,30.92
2018-03-01T16:55:57.876Z,37.47
2018-03-01T16:58:25.525Z,54.90
2018-03-01T17:00:53.143Z,37.03
2018-03-01T17:03:20.774Z,37.78
2018-03-01T17:05:49.154Z,38.13
2018-03-01T17:08:18.427Z,35.47
2018-03-01T17:10:46.102Z,38.58
2018-03-01T17:13:13.916Z,42.25
2018-03-01T17:15:43.984Z,39.17
2018-03-01T17:18:12.451Z,40.00
2018-03-01T17:20:40.894Z,44.25
2018-03-01T17:23:08.497Z,58.72
2018-03-01T17:25:36.188Z,36.70
2018-03-01T17:28:04.820Z,39.38
2018-03-01T17:30:32.592Z,41.75
2018-03-01T17:33:00.563Z,40.85
2018-03-01T17:35:32.358Z,42.28
2018-03-01T17:38:01.192Z,38.13
2018-03-01T17:40:30.707Z,36.95
2018-03-01T17:42:59.709Z,47.10
2018-03-01T17:45:30.371Z,44.55
2018-03-01T17:47:57.993Z,38.47
2018-03-01T17:50:25.611Z,39.10
2018-03-01T17:52:53.245Z,38.95
2018-03-01T17:55:20.854Z,39.97
2018-03-01T17:57:48.496Z,47.38
2018-03-01T18:00:16.121Z,39.28
2018-03-01T18:02:44.543Z,41.47
2018-03-01T18:05:12.406Z,38.05
2018-03-01T18:07:40.070Z,39.97
2018-03-01T18:10:07.714Z,42.85
2018-03-01T18:12:35.466Z,39.40
2018-03-01T18:15:03.226Z,41.70
2018-03-01T18:17:30.877Z,39.78
2018-03-01T18:19:58.523Z,39.70
2018-03-01T18:22:26.166Z,44.03
2018-03-01T18:24:53.803Z,40.70
2018-03-01T18:27:22.199Z,35.97
2018-03-01T18:29:50.591Z,48.60
2018-03-01T18:32:18.217Z,45.10
2018-03-01T18:34:45.980Z,36.08
2018-03-01T18:37:13.596Z,36.75
2018-03-01T18:39:41.660Z,36.03
2018-03-01T18:42:10.491Z,43.03
2018-03-01T18:44:38.184Z,37.40
2018-03-01T18:47:05.996Z,50.53
2018-03-01T18:49:34.521Z,49.13
2018-03-01T18:52:02.219Z,57.20
2018-03-01T18:54:31.016Z,48.15
2018-03-01T18:56:59.185Z,39.97
2018-03-01T18:59:27.437Z,42.33
2018-03-01T19:01:55.091Z,42.92
2018-03-01T19:04:22.816Z,43.45
2018-03-01T19:06:50.808Z,40.78
2018-03-01T19:09:18.561Z,39.00
2018-03-01T19:11:48.531Z,38.50
2018-03-01T19:14:16.918Z,43.67
2018-03-01T19:16:44.544Z,39.60
2018-03-01T19:19:12.178Z,43.50
2018-03-01T19:21:40.551Z,41.70
2018-03-01T19:24:08.282Z,37.15
2018-03-01T19:26:35.986Z,40.17
2018-03-01T19:29:03.687Z,43.95
2018-03-01T19:31:33.498Z,41.03
2018-03-01T19:34:02.073Z,38.38
2018-03-01T19:36:29.771Z,41.28
2018-03-01T19:38:57.388Z,45.70
2018-03-01T19:41:25.045Z,42.83
2018-03-01T19:43:52.780Z,57.97
2018-03-01T19:46:20.442Z,47.22
2018-03-01T19:48:48.916Z,42.55
2018-03-01T19:51:16.557Z,39.42
2018-03-01T19:53:44.924Z,43.30
2018-03-01T19:56:12.622Z,43.90
2018-03-01T19:58:40.262Z,41.90
2018-03-01T20:01:07.915Z,45.08
2018-03-01T20:03:35.539Z,48.13
2018-03-01T20:06:03.464Z,44.10
2018-03-01T20:08:31.126Z,51.70
2018-03-01T20:10:58.748Z,44.85
2018-03-01T20:13:26.453Z,42.20
2018-03-01T20:15:54.875Z,39.03
2018-03-01T20:18:22.533Z,51.45
2018-03-01T20:20:50.251Z,42.88
2018-03-01T20:23:17.904Z,42.58
2018-03-01T20:25:45.546Z,40.70
2018-03-01T20:28:13.915Z,42.50
2018-03-01T20:30:41.562Z,38.33
2018-03-01T20:33:09.182Z,40.47
2018-03-01T20:35:36.830Z,37.60
2018-03-01T20:38:04.444Z,54.45
2018-03-01T20:40:32.890Z,43.63
2018-03-01T20:43:00.921Z,51.00
2018-03-01T20:45:28.615Z,47.67
2018-03-01T20:47:56.357Z,42.10
2018-03-01T20:50:24.040Z,46.60
2018-03-01T20:52:52.452Z,41.00
2018-03-01T20:55:20.050Z,43.25
2018-03-01T20:57:47.675Z,42.45
2018-03-01T21:00:16.227Z,42.83
2018-03-01T21:02:43.875Z,44.65
2018-03-01T21:05:11.472Z,46.45
2018-03-01T21:07:39.133Z,44.47
2018-03-01T21:10:06.733Z,47.05
2018-03-01T21:12:34.623Z,51.95
2018-03-01T21:15:03.046Z,45.65
2018-03-01T21:17:30.752Z,41.67
2018-03-01T21:19:58.440Z,45.15
2018-03-01T21:22:26.043Z,42.45
2018-03-01T21:24:53.718Z,45.75
2018-03-01T21:27:21.295Z,48.80
2018-03-01T21:29:49.000Z,50.10
2018-03-01T21:32:16.701Z,45.28
2018-03-01T21:34:44.325Z,53.38
2018-03-01T21:37:11.970Z,45.58
2018-03-01T21:39:39.633Z,48.97
2018-03-01T21:42:07.261Z,45.22
2018-03-01T21:44:35.646Z,46.95
2018-03-01T21:47:08.196Z,44.75
2018-03-01T21:49:35.872Z,55.17
2018-03-01T21:52:03.506Z,42.10
2018-03-01T21:54:31.126Z,48.80
2018-03-01T21:56:58.748Z,54.53
2018-03-01T21:59:27.109Z,46.42
2018-03-01T22:01:54.748Z,47.70
2018-03-01T22:04:22.353Z,55.50
2018-03-01T22:06:49.985Z,52.38
2018-03-01T22:09:17.616Z,53.35
2018-03-01T22:11:45.236Z,46.60
2018-03-01T22:14:12.863Z,50.03
2018-03-01T22:16:40.511Z,45.85
2018-03-01T22:19:08.122Z,46.47
2018-03-01T22:21:36.481Z,51.15
2018-03-01T22:24:04.115Z,48.55
2018-03-01T22:26:31.726Z,49.95
2018-03-01T22:28:59.366Z,50.88
2018-03-01T22:31:26.979Z,51.47
2018-03-01T22:33:54.621Z,51.45
2018-03-01T22:36:22.219Z,47.75
2018-03-01T22:38:49.849Z,55.55
2018-03-01T22:41:17.457Z,48.20
2018-03-01T22:43:45.071Z,46.63
2018-03-01T22:46:13.473Z,45.45
2018-03-01T22:48:41.843Z,49.20
2018-03-01T22:51:09.483Z,49.45
2018-03-01T22:53:37.845Z,47.85
2018-03-01T22:56:05.476Z,53.25
2018-03-01T22:58:33.092Z,49.53
2018-03-01T23:01:00.739Z,47.22
2018-03-01T23:03:28.338Z,46.17
2018-03-01T23:05:55.972Z,47.03
2018-03-01T23:08:23.601Z,48.30
2018-03-01T23:10:51.264Z,49.80
2018-03-01T23:13:18.906Z,54.65
2018-03-01T23:15:46.501Z,62.70
2018-03-01T23:18:14.886Z,48.42
2018-03-01T23:20:43.268Z,49.10
2018-03-01T23:23:10.904Z,50.47
2018-03-01T23:25:38.508Z,50.65
2018-03-01T23:28:06.461Z,50.50
2018-03-01T23:30:34.070Z,51.70
2018-03-01T23:33:01.723Z,57.03
2018-03-01T23:35:30.733Z,47.05
2018-03-01T23:37:58.347Z,59.17
2018-03-01T23:40:26.745Z,56.05
2018-03-01T23:42:54.343Z,52.78
2018-03-01T23:45:21.992Z,46.70
2018-03-01T23:47:49.601Z,53.08
2018-03-01T23:50:17.235Z,54.20
2018-03-01T23:52:45.598Z,46.78
2018-03-01T23:55:13.217Z,57.58
2018-03-01T23:57:40.917Z,60.38
